Time;durP1;ratioP1;P1;durP2;ratioP2;P2;SDS_P1;SDS_P2;PMS_P1;PMS_P2;Temp;Humidity;BMP_temperature;BMP_pressure;BME280_temperature;BME280_humidity;BME280_pressure;Samples;Min_cycle;Max_cycle;Signal;HPM_P1;HPM_P2
2023/06/15 00:01:21;;;;;;;;;;;13.70;51.30;;;;;;4128339;28;19954;-83
2023/06/15 00:03:42;;;;;;;;;;;13.60;51.50;;;;;;4129402;28;19918;-83
2023/06/15 00:06:03;;;;;;;;;;;13.50;51.60;;;;;;4129218;28;20566;-83
2023/06/15 00:08:24;;;;;;;;;;;13.50;51.20;;;;;;4123952;28;19953;-81
2023/06/15 00:10:44;;;;;;;;;;;13.50;51.40;;;;;;4128866;28;19985;-82
2023/06/15 00:13:05;;;;;;;;;;;13.40;51.00;;;;;;4130000;28;19918;-83
2023/06/15 00:15:30;;;;;;;;;;;13.40;50.50;;;;;;4133860;28;19917;-83
2023/06/15 00:17:51;;;;;;;;;;;13.30;51.20;;;;;;4122772;28;19961;-82
2023/06/15 00:20:12;;;;;;;;;;;13.30;51.60;;;;;;4125866;28;19926;-83
2023/06/15 00:22:34;;;;;;;;;;;13.20;51.70;;;;;;4128532;28;19957;-82
2023/06/15 00:24:55;;;;;;;;;;;13.10;51.40;;;;;;4138651;28;19921;-83
2023/06/15 00:27:16;;;;;;;;;;;13.20;51.60;;;;;;4134795;28;19937;-82
2023/06/15 00:29:37;;;;;;;;;;;13.10;51.70;;;;;;4135734;28;19925;-81
2023/06/15 00:31:58;;;;;;;;;;;13.10;52.30;;;;;;4126180;28;19961;-82
2023/06/15 00:34:19;;;;;;;;;;;12.90;52.90;;;;;;4132129;28;20016;-82
2023/06/15 00:36:39;;;;;;;;;;;13.00;51.60;;;;;;4130824;28;19914;-80
2023/06/15 00:39:00;;;;;;;;;;;12.90;51.80;;;;;;4132155;28;20418;-82
2023/06/15 00:41:21;;;;;;;;;;;12.90;52.20;;;;;;4128356;28;20272;-82
2023/06/15 00:43:42;;;;;;;;;;;12.80;52.20;;;;;;4128363;28;19917;-82
2023/06/15 00:46:03;;;;;;;;;;;12.80;52.60;;;;;;4125647;28;19929;-82
2023/06/15 00:48:24;;;;;;;;;;;12.80;53.20;;;;;;4124103;28;19918;-84
2023/06/15 00:50:45;;;;;;;;;;;12.70;52.70;;;;;;4131336;28;19913;-82
2023/06/15 00:53:06;;;;;;;;;;;12.70;53.00;;;;;;4123176;28;19914;-82
2023/06/15 00:55:27;;;;;;;;;;;12.60;52.10;;;;;;4129410;28;19997;-83
2023/06/15 00:57:49;;;;;;;;;;;12.60;52.60;;;;;;4125737;28;19937;-82
2023/06/15 01:00:13;;;;;;;;;;;12.60;52.90;;;;;;4123604;28;19922;-81
2023/06/15 01:02:34;;;;;;;;;;;12.50;52.80;;;;;;4124579;28;19914;-81
2023/06/15 01:04:55;;;;;;;;;;;12.50;53.20;;;;;;4124461;28;19945;-82
2023/06/15 01:07:16;;;;;;;;;;;12.50;53.40;;;;;;4129414;28;19921;-81
2023/06/15 01:09:39;;;;;;;;;;;12.50;53.50;;;;;;4123645;28;20488;-81
2023/06/15 01:12:01;;;;;;;;;;;12.40;53.30;;;;;;4126815;28;19999;-82
2023/06/15 01:14:23;;;;;;;;;;;12.30;53.70;;;;;;4126173;28;20894;-82
2023/06/15 01:16:52;;;;;;;;;;;12.40;53.60;;;;;;4126488;28;19918;-81
2023/06/15 01:19:19;;;;;;;;;;;12.40;53.80;;;;;;4129027;28;19915;-82
2023/06/15 01:21:40;;;;;;;;;;;12.40;53.70;;;;;;4119079;28;20403;-81
2023/06/15 01:24:03;;;;;;;;;;;12.30;54.00;;;;;;4127799;28;19956;-82
2023/06/15 01:26:28;;;;;;;;;;;12.30;54.20;;;;;;4125027;28;19925;-83
2023/06/15 01:28:50;;;;;;;;;;;12.30;54.60;;;;;;4132774;28;19961;-82
2023/06/15 01:31:12;;;;;;;;;;;12.30;54.50;;;;;;4122705;28;19922;-83
2023/06/15 01:33:32;;;;;;;;;;;12.30;54.40;;;;;;4127797;28;19921;-83
2023/06/15 01:35:53;;;;;;;;;;;12.30;54.40;;;;;;4128964;28;19973;-83
2023/06/15 01:38:17;;;;;;;;;;;12.30;54.00;;;;;;4123613;28;20242;-82
2023/06/15 01:40:39;;;;;;;;;;;12.20;54.10;;;;;;4124936;28;19930;-82
2023/06/15 01:43:00;;;;;;;;;;;12.20;54.20;;;;;;4124992;28;19932;-83
2023/06/15 01:45:21;;;;;;;;;;;12.20;54.30;;;;;;4121955;28;20028;-80
2023/06/15 01:47:43;;;;;;;;;;;12.20;54.40;;;;;;4124864;28;19926;-82
2023/06/15 01:50:04;;;;;;;;;;;12.20;54.10;;;;;;4131000;28;19914;-81
2023/06/15 01:52:25;;;;;;;;;;;12.10;53.80;;;;;;4126441;28;19917;-82
2023/06/15 01:54:47;;;;;;;;;;;12.10;54.20;;;;;;4128554;28;20378;-82
2023/06/15 01:57:07;;;;;;;;;;;12.10;54.50;;;;;;4129990;28;19918;-82
2023/06/15 01:59:28;;;;;;;;;;;12.10;54.70;;;;;;4133499;28;19964;-82
2023/06/15 02:01:49;;;;;;;;;;;12.10;54.70;;;;;;4126708;28;19985;-81
2023/06/15 02:04:10;;;;;;;;;;;12.10;54.90;;;;;;4129409;28;19925;-82
2023/06/15 02:06:31;;;;;;;;;;;12.00;54.90;;;;;;4128659;28;20396;-82
2023/06/15 02:08:52;;;;;;;;;;;12.00;54.90;;;;;;4133760;28;20016;-81
2023/06/15 02:11:18;;;;;;;;;;;12.00;55.10;;;;;;4125269;28;19917;-83
2023/06/15 02:13:39;;;;;;;;;;;12.00;55.10;;;;;;4136672;28;19914;-81
2023/06/15 02:16:00;;;;;;;;;;;12.00;54.60;;;;;;4126964;28;19917;-81
2023/06/15 02:18:21;;;;;;;;;;;11.90;54.60;;;;;;4128737;28;19922;-82
2023/06/15 02:20:42;;;;;;;;;;;12.00;54.60;;;;;;4131528;28;19921;-82
2023/06/15 02:23:03;;;;;;;;;;;11.90;53.80;;;;;;4130121;28;19918;-81
2023/06/15 02:25:24;;;;;;;;;;;11.90;54.10;;;;;;4128842;28;20033;-81
2023/06/15 02:27:45;;;;;;;;;;;11.80;53.90;;;;;;4127792;28;19935;-82
2023/06/15 02:30:06;;;;;;;;;;;11.90;54.00;;;;;;4133254;28;20383;-81
2023/06/15 02:32:34;;;;;;;;;;;11.80;53.50;;;;;;4128704;28;19993;-83
2023/06/15 02:34:56;;;;;;;;;;;11.80;53.80;;;;;;4127456;28;20331;-82
2023/06/15 02:37:16;;;;;;;;;;;11.70;53.70;;;;;;4132307;28;19921;-79
2023/06/15 02:39:37;;;;;;;;;;;11.70;54.20;;;;;;4130866;28;19921;-82
2023/06/15 02:41:58;;;;;;;;;;;11.70;55.60;;;;;;4127411;28;19913;-82
2023/06/15 02:44:21;;;;;;;;;;;11.70;55.50;;;;;;4125450;28;19989;-82
2023/06/15 02:46:42;;;;;;;;;;;11.60;55.60;;;;;;4128038;28;19957;-81
2023/06/15 02:49:03;;;;;;;;;;;11.60;55.80;;;;;;4130035;28;20172;-82
2023/06/15 02:51:24;;;;;;;;;;;11.60;56.00;;;;;;4131423;28;19914;-83
2023/06/15 02:53:45;;;;;;;;;;;11.60;56.10;;;;;;4137461;28;19913;-83
2023/06/15 02:56:06;;;;;;;;;;;11.60;56.20;;;;;;4131537;28;19957;-83
2023/06/15 02:58:32;;;;;;;;;;;11.60;56.20;;;;;;4126307;28;19918;-83
2023/06/15 03:00:53;;;;;;;;;;;11.50;56.20;;;;;;4128780;28;19921;-82
2023/06/15 03:03:16;;;;;;;;;;;11.60;56.40;;;;;;4124970;28;20671;-80
2023/06/15 03:05:39;;;;;;;;;;;11.50;56.50;;;;;;4139296;28;20025;-81
2023/06/15 03:08:00;;;;;;;;;;;11.60;56.70;;;;;;4131163;28;19922;-82
2023/06/15 03:10:21;;;;;;;;;;;11.60;56.80;;;;;;4131735;28;20041;-82
2023/06/15 03:12:42;;;;;;;;;;;11.50;56.80;;;;;;4130773;28;19921;-82
2023/06/15 03:15:03;;;;;;;;;;;11.60;56.80;;;;;;4130238;28;19964;-83
2023/06/15 03:17:24;;;;;;;;;;;11.60;56.80;;;;;;4128280;28;19961;-84
2023/06/15 03:19:48;;;;;;;;;;;11.60;57.00;;;;;;4133274;28;19961;-84
2023/06/15 03:22:10;;;;;;;;;;;11.60;57.00;;;;;;4131150;28;20215;-82
2023/06/15 03:24:32;;;;;;;;;;;11.60;57.10;;;;;;4131280;28;19946;-82
2023/06/15 03:26:57;;;;;;;;;;;11.60;57.20;;;;;;4130197;28;19948;-83
2023/06/15 03:29:19;;;;;;;;;;;11.60;57.10;;;;;;4132812;28;19960;-83
2023/06/15 03:31:44;;;;;;;;;;;11.60;57.00;;;;;;4128283;28;19913;-82
2023/06/15 03:34:04;;;;;;;;;;;11.60;57.10;;;;;;4132432;28;19918;-83
2023/06/15 03:36:29;;;;;;;;;;;11.60;57.60;;;;;;4136543;28;19921;-81
2023/06/15 03:38:50;;;;;;;;;;;11.70;57.70;;;;;;4128686;28;19969;-83
2023/06/15 03:41:11;;;;;;;;;;;11.70;57.60;;;;;;4131505;28;19921;-85
2023/06/15 03:43:32;;;;;;;;;;;11.70;57.70;;;;;;4128552;28;20175;-80
2023/06/15 03:45:52;;;;;;;;;;;11.70;57.80;;;;;;4128846;28;19925;-81
2023/06/15 03:48:13;;;;;;;;;;;11.80;57.10;;;;;;4125246;28;19937;-83
2023/06/15 03:50:34;;;;;;;;;;;11.70;60.50;;;;;;4130956;28;19918;-82
2023/06/15 03:52:55;;;;;;;;;;;11.80;60.60;;;;;;4134258;28;20319;-83
2023/06/15 03:55:16;;;;;;;;;;;11.80;60.30;;;;;;4132129;28;19917;-83
2023/06/15 03:57:37;;;;;;;;;;;11.80;60.00;;;;;;4125831;28;20021;-83
2023/06/15 03:59:58;;;;;;;;;;;11.90;60.70;;;;;;4129263;28;19925;-83
2023/06/15 04:02:19;;;;;;;;;;;12.00;60.20;;;;;;4130889;28;19928;-84
2023/06/15 04:04:40;;;;;;;;;;;12.00;60.00;;;;;;4129599;28;20012;-81
2023/06/15 04:07:01;;;;;;;;;;;12.00;60.50;;;;;;4127167;28;19973;-83
2023/06/15 04:09:21;;;;;;;;;;;12.00;60.20;;;;;;4129817;28;19924;-81
2023/06/15 04:11:42;;;;;;;;;;;12.20;59.20;;;;;;4127313;28;19922;-83
2023/06/15 04:14:03;;;;;;;;;;;12.10;59.30;;;;;;4127535;28;19969;-83
2023/06/15 04:16:24;;;;;;;;;;;12.20;59.90;;;;;;4127857;28;20549;-82
2023/06/15 04:18:45;;;;;;;;;;;12.20;60.90;;;;;;4125593;28;19922;-82
2023/06/15 04:21:06;;;;;;;;;;;12.30;61.20;;;;;;4131826;28;19920;-82
2023/06/15 04:23:27;;;;;;;;;;;12.30;62.30;;;;;;4130366;28;19922;-81
2023/06/15 04:25:48;;;;;;;;;;;12.40;62.90;;;;;;4132115;28;19918;-82
2023/06/15 04:28:12;;;;;;;;;;;12.50;63.60;;;;;;4135997;28;19957;-85
2023/06/15 04:30:32;;;;;;;;;;;12.60;64.10;;;;;;4124783;28;20366;-82
2023/06/15 04:32:59;;;;;;;;;;;12.70;64.30;;;;;;4135187;28;19979;-84
2023/06/15 04:35:20;;;;;;;;;;;12.80;64.30;;;;;;4144733;28;19997;-84
2023/06/15 04:37:41;;;;;;;;;;;13.00;64.90;;;;;;4143563;28;19926;-85
2023/06/15 04:40:04;;;;;;;;;;;13.10;66.10;;;;;;4144186;28;19913;-82
2023/06/15 04:42:26;;;;;;;;;;;13.20;66.30;;;;;;4140901;28;20011;-84
2023/06/15 04:44:47;;;;;;;;;;;13.50;66.50;;;;;;4138179;28;19926;-82
2023/06/15 04:47:08;;;;;;;;;;;13.50;66.00;;;;;;4127794;28;19965;-82
2023/06/15 04:49:30;;;;;;;;;;;13.60;65.20;;;;;;4134228;28;19922;-83
2023/06/15 04:51:51;;;;;;;;;;;13.70;64.20;;;;;;4131457;28;19925;-85
2023/06/15 04:54:12;;;;;;;;;;;13.90;64.50;;;;;;4125534;28;19960;-80
2023/06/15 04:56:33;;;;;;;;;;;14.00;64.60;;;;;;4129011;28;20013;-82
2023/06/15 04:58:53;;;;;;;;;;;14.00;64.90;;;;;;4127006;28;19922;-81
2023/06/15 05:01:14;;;;;;;;;;;14.10;64.00;;;;;;4127999;28;20358;-83
2023/06/15 05:03:35;;;;;;;;;;;14.20;64.00;;;;;;4129725;28;19918;-82
2023/06/15 05:05:56;;;;;;;;;;;14.20;64.10;;;;;;4128246;28;19929;-84
2023/06/15 05:08:17;;;;;;;;;;;14.40;64.50;;;;;;4126014;28;19957;-82
2023/06/15 05:10:38;;;;;;;;;;;14.40;64.40;;;;;;4130021;28;19921;-81
2023/06/15 05:12:59;;;;;;;;;;;14.50;64.30;;;;;;4125519;28;19924;-84
2023/06/15 05:15:20;;;;;;;;;;;14.60;63.70;;;;;;4134011;28;19918;-81
2023/06/15 05:17:41;;;;;;;;;;;14.50;62.80;;;;;;4124194;28;20432;-83
2023/06/15 05:20:05;;;;;;;;;;;14.60;63.80;;;;;;4118283;28;19914;-83
2023/06/15 05:22:26;;;;;;;;;;;14.60;63.40;;;;;;4123574;28;20376;-82
2023/06/15 05:24:47;;;;;;;;;;;14.70;63.00;;;;;;4133112;28;19921;-83
2023/06/15 05:27:08;;;;;;;;;;;14.70;63.40;;;;;;4131281;28;19960;-84
2023/06/15 05:29:32;;;;;;;;;;;14.80;62.80;;;;;;4123093;28;19993;-81
2023/06/15 05:31:55;;;;;;;;;;;14.80;61.80;;;;;;4124578;28;19922;-84
2023/06/15 05:34:16;;;;;;;;;;;14.90;61.30;;;;;;4134074;28;19922;-83
2023/06/15 05:36:37;;;;;;;;;;;14.80;61.90;;;;;;4131152;28;20580;-82
2023/06/15 05:38:58;;;;;;;;;;;14.80;62.70;;;;;;4132160;28;19918;-81
2023/06/15 05:41:19;;;;;;;;;;;14.80;61.60;;;;;;4129185;28;19925;-81
2023/06/15 05:43:40;;;;;;;;;;;14.80;61.00;;;;;;4124991;28;19933;-84
2023/06/15 05:46:00;;;;;;;;;;;14.80;61.90;;;;;;4131785;28;19969;-84
2023/06/15 05:48:21;;;;;;;;;;;14.80;61.30;;;;;;4126105;28;19926;-83
2023/06/15 05:50:42;;;;;;;;;;;14.80;61.40;;;;;;4127068;28;19917;-81
2023/06/15 05:53:03;;;;;;;;;;;14.80;61.80;;;;;;4133631;28;19914;-84
2023/06/15 05:55:23;;;;;;;;;;;14.80;61.40;;;;;;4124086;28;19923;-82
2023/06/15 05:57:44;;;;;;;;;;;14.90;61.40;;;;;;4134235;28;19922;-83
2023/06/15 06:00:05;;;;;;;;;;;14.90;62.20;;;;;;4135412;28;19921;-83
2023/06/15 06:02:26;;;;;;;;;;;14.90;62.30;;;;;;4137796;28;20056;-82
2023/06/15 06:04:47;;;;;;;;;;;15.00;61.60;;;;;;4134965;28;20380;-83
2023/06/15 06:07:08;;;;;;;;;;;15.10;61.60;;;;;;4133351;28;19944;-84
2023/06/15 06:09:29;;;;;;;;;;;15.20;61.80;;;;;;4131779;28;19999;-82
2023/06/15 06:11:50;;;;;;;;;;;15.20;61.80;;;;;;4132827;28;19918;-83
2023/06/15 06:14:11;;;;;;;;;;;15.30;61.70;;;;;;4131778;28;19928;-83
2023/06/15 06:16:32;;;;;;;;;;;15.40;61.80;;;;;;4135819;28;19918;-84
2023/06/15 06:18:52;;;;;;;;;;;15.50;61.90;;;;;;4133639;28;21052;-84
2023/06/15 06:21:16;;;;;;;;;;;15.50;61.80;;;;;;4134399;28;19944;-83
2023/06/15 06:23:39;;;;;;;;;;;15.60;61.60;;;;;;4133067;28;20032;-84
2023/06/15 06:25:59;;;;;;;;;;;15.70;61.00;;;;;;4133063;28;19918;-83
2023/06/15 06:28:20;;;;;;;;;;;15.70;61.10;;;;;;4125085;28;19924;-83
2023/06/15 06:30:41;;;;;;;;;;;15.80;61.60;;;;;;4137688;28;19932;-83
2023/06/15 06:33:04;;;;;;;;;;;15.90;61.70;;;;;;4141244;28;19918;-82
2023/06/15 06:35:25;;;;;;;;;;;16.00;61.20;;;;;;4134825;28;19921;-82
2023/06/15 06:37:45;;;;;;;;;;;16.10;61.10;;;;;;4135124;28;20521;-83
2023/06/15 06:40:06;;;;;;;;;;;16.10;61.00;;;;;;4136629;28;19972;-81
2023/06/15 06:42:27;;;;;;;;;;;16.20;61.40;;;;;;4131689;28;20016;-83
2023/06/15 06:44:48;;;;;;;;;;;16.30;61.40;;;;;;4133878;28;20439;-82
2023/06/15 06:47:09;;;;;;;;;;;16.40;60.90;;;;;;4132348;28;19948;-80
2023/06/15 06:49:30;;;;;;;;;;;16.50;61.40;;;;;;4134547;28;19917;-82
2023/06/15 06:51:51;;;;;;;;;;;16.60;61.60;;;;;;4134446;28;19929;-82
2023/06/15 06:54:11;;;;;;;;;;;16.60;60.20;;;;;;4124179;28;19922;-82
2023/06/15 06:56:32;;;;;;;;;;;16.80;59.90;;;;;;4128042;28;19960;-83
2023/06/15 06:58:53;;;;;;;;;;;16.80;59.70;;;;;;4120806;28;19918;-80
2023/06/15 07:01:14;;;;;;;;;;;16.90;59.40;;;;;;4126312;28;20407;-81
2023/06/15 07:03:36;;;;;;;;;;;16.90;59.80;;;;;;4137007;28;19921;-79
2023/06/15 07:05:58;;;;;;;;;;;17.00;59.10;;;;;;4136966;28;19980;-82
2023/06/15 07:08:20;;;;;;;;;;;17.10;58.60;;;;;;4123436;28;19918;-83
2023/06/15 07:10:41;;;;;;;;;;;17.20;58.30;;;;;;4128588;28;19922;-82
2023/06/15 07:13:02;;;;;;;;;;;17.30;58.40;;;;;;4126453;28;19918;-81
2023/06/15 07:15:23;;;;;;;;;;;17.30;58.40;;;;;;4120955;28;19967;-82
2023/06/15 07:17:44;;;;;;;;;;;17.40;58.50;;;;;;4126046;28;20033;-81
2023/06/15 07:20:06;;;;;;;;;;;17.40;58.20;;;;;;4131414;28;19917;-84
2023/06/15 07:22:26;;;;;;;;;;;17.50;58.10;;;;;;4129703;28;19926;-83
2023/06/15 07:24:47;;;;;;;;;;;17.60;57.80;;;;;;4126817;28;19956;-83
2023/06/15 07:27:08;;;;;;;;;;;17.70;57.60;;;;;;4129599;28;19914;-82
2023/06/15 07:29:29;;;;;;;;;;;17.80;57.40;;;;;;4122565;28;20001;-83
2023/06/15 07:31:50;;;;;;;;;;;17.80;57.40;;;;;;4124512;28;19918;-83
2023/06/15 07:34:10;;;;;;;;;;;17.90;57.20;;;;;;4133729;28;19917;-84
2023/06/15 07:36:31;;;;;;;;;;;18.00;57.30;;;;;;4133610;28;19993;-83
2023/06/15 07:38:53;;;;;;;;;;;18.00;56.90;;;;;;4133576;28;19936;-84
2023/06/15 07:41:14;;;;;;;;;;;18.10;57.10;;;;;;4125945;28;20855;-81
2023/06/15 07:43:35;;;;;;;;;;;18.20;57.20;;;;;;4130789;28;19989;-81
2023/06/15 07:45:56;;;;;;;;;;;18.20;56.60;;;;;;4130980;28;19920;-83
2023/06/15 07:48:17;;;;;;;;;;;18.30;56.50;;;;;;4134230;28;19913;-82
2023/06/15 07:50:40;;;;;;;;;;;18.30;56.50;;;;;;4129815;28;20419;-83
2023/06/15 07:53:01;;;;;;;;;;;18.40;56.30;;;;;;4127757;28;20016;-81
2023/06/15 07:55:21;;;;;;;;;;;18.50;55.60;;;;;;4131030;28;20032;-83
2023/06/15 07:57:42;;;;;;;;;;;18.50;56.20;;;;;;4128129;28;20389;-83
2023/06/15 08:00:05;;;;;;;;;;;18.50;55.40;;;;;;4131299;28;19914;-83
2023/06/15 08:02:25;;;;;;;;;;;18.60;55.30;;;;;;4129644;28;20408;-82
2023/06/15 08:04:46;;;;;;;;;;;18.60;55.20;;;;;;4127592;28;19975;-81
2023/06/15 08:07:07;;;;;;;;;;;18.70;55.00;;;;;;4127817;28;19924;-84
2023/06/15 08:09:28;;;;;;;;;;;18.70;54.80;;;;;;4124791;28;19977;-81
2023/06/15 08:11:50;;;;;;;;;;;18.70;54.70;;;;;;4122359;28;19917;-83
2023/06/15 08:14:11;;;;;;;;;;;18.70;54.40;;;;;;4123241;28;19921;-83
2023/06/15 08:16:31;;;;;;;;;;;18.80;54.60;;;;;;4123038;28;19922;-82
2023/06/15 08:18:52;;;;;;;;;;;18.70;54.70;;;;;;4128213;28;19917;-84
2023/06/15 08:21:13;;;;;;;;;;;18.80;54.70;;;;;;4127457;28;19928;-84
2023/06/15 08:23:34;;;;;;;;;;;18.80;54.80;;;;;;4130223;28;19921;-84
2023/06/15 08:25:55;;;;;;;;;;;18.80;54.80;;;;;;4131466;28;19929;-85
2023/06/15 08:28:16;;;;;;;;;;;18.80;54.80;;;;;;4133195;28;19921;-84
2023/06/15 08:30:36;;;;;;;;;;;18.90;54.90;;;;;;4130252;28;20043;-83
2023/06/15 08:32:57;;;;;;;;;;;18.90;55.00;;;;;;4132685;28;19914;-84
2023/06/15 08:35:18;;;;;;;;;;;18.90;55.20;;;;;;4134700;28;19939;-83
2023/06/15 08:37:39;;;;;;;;;;;18.90;55.00;;;;;;4126357;28;20044;-83
2023/06/15 08:40:05;;;;;;;;;;;19.00;55.00;;;;;;4129443;28;19922;-84
2023/06/15 08:42:27;;;;;;;;;;;19.00;54.80;;;;;;4124952;28;19921;-81
2023/06/15 08:44:50;;;;;;;;;;;19.10;54.70;;;;;;4123408;28;19926;-81
2023/06/15 08:47:11;;;;;;;;;;;19.10;54.60;;;;;;4126367;28;20261;-82
2023/06/15 08:49:32;;;;;;;;;;;19.10;54.50;;;;;;4125505;28;20006;-83
2023/06/15 08:51:54;;;;;;;;;;;19.10;54.40;;;;;;4128038;28;19941;-81
2023/06/15 08:54:18;;;;;;;;;;;19.10;54.40;;;;;;4119792;28;20335;-82
2023/06/15 08:56:39;;;;;;;;;;;19.10;54.80;;;;;;4130568;28;19945;-83
2023/06/15 08:59:00;;;;;;;;;;;19.10;54.20;;;;;;4122743;28;19956;-82
2023/06/15 09:01:22;;;;;;;;;;;19.10;53.90;;;;;;4125436;28;19976;-80
2023/06/15 09:03:44;;;;;;;;;;;19.10;53.80;;;;;;4130375;28;19973;-83
2023/06/15 09:06:05;;;;;;;;;;;19.10;53.50;;;;;;4126714;28;20533;-82
2023/06/15 09:08:26;;;;;;;;;;;19.10;53.40;;;;;;4123797;28;19921;-83
2023/06/15 09:10:46;;;;;;;;;;;19.20;53.40;;;;;;4129363;28;20520;-83
2023/06/15 09:13:13;;;;;;;;;;;19.20;53.30;;;;;;4123917;28;19921;-81
2023/06/15 09:15:36;;;;;;;;;;;19.20;53.20;;;;;;4120100;28;20323;-82
2023/06/15 09:17:57;;;;;;;;;;;19.20;53.20;;;;;;4125524;28;19913;-83
2023/06/15 09:20:19;;;;;;;;;;;19.20;53.20;;;;;;4126029;28;20130;-82
2023/06/15 09:22:42;;;;;;;;;;;19.20;53.00;;;;;;4126706;28;20397;-81
2023/06/15 09:25:10;;;;;;;;;;;19.20;52.90;;;;;;4127177;28;19925;-82
2023/06/15 09:27:30;;;;;;;;;;;19.30;53.00;;;;;;4126802;28;20862;-81
2023/06/15 09:30:01;;;;;;;;;;;19.40;52.70;;;;;;4126688;28;19921;-83
2023/06/15 09:32:27;;;;;;;;;;;19.40;52.60;;;;;;4126436;28;19925;-79
2023/06/15 09:34:58;;;;;;;;;;;19.50;52.80;;;;;;4130161;28;19969;-82
2023/06/15 09:37:19;;;;;;;;;;;19.70;52.20;;;;;;4127994;28;19917;-80
2023/06/15 09:39:44;;;;;;;;;;;19.80;51.10;;;;;;4133473;28;19929;-81
2023/06/15 09:42:05;;;;;;;;;;;20.00;51.70;;;;;;4128197;28;20029;-82
2023/06/15 09:44:26;;;;;;;;;;;20.10;49.50;;;;;;4123024;28;19921;-84
2023/06/15 09:46:51;;;;;;;;;;;20.30;48.80;;;;;;4123301;28;20416;-83
2023/06/15 09:49:22;;;;;;;;;;;20.40;48.60;;;;;;4129549;28;19921;-83
2023/06/15 09:51:45;;;;;;;;;;;20.60;48.20;;;;;;4130388;28;20292;-82
2023/06/15 09:54:06;;;;;;;;;;;20.70;48.00;;;;;;4133272;28;19914;-82
2023/06/15 09:56:28;;;;;;;;;;;20.80;47.60;;;;;;4133748;28;19957;-83
2023/06/15 09:58:49;;;;;;;;;;;20.80;46.50;;;;;;4133124;28;20439;-83
2023/06/15 10:01:10;;;;;;;;;;;20.90;46.60;;;;;;4127154;28;19918;-83
2023/06/15 10:03:31;;;;;;;;;;;20.90;46.00;;;;;;4131631;28;19921;-83
2023/06/15 10:05:57;;;;;;;;;;;21.00;46.40;;;;;;4132338;28;19913;-83
2023/06/15 10:08:18;;;;;;;;;;;21.00;46.10;;;;;;4124517;28;19922;-81
2023/06/15 10:10:41;;;;;;;;;;;21.10;45.70;;;;;;4134227;28;19929;-84
2023/06/15 10:13:02;;;;;;;;;;;21.20;46.50;;;;;;4129733;28;19937;-82
2023/06/15 10:15:24;;;;;;;;;;;21.20;45.70;;;;;;4127489;28;19914;-81
2023/06/15 10:17:46;;;;;;;;;;;21.30;46.20;;;;;;4126561;28;20013;-83
2023/06/15 10:20:17;;;;;;;;;;;21.30;43.90;;;;;;4130761;28;19918;-82
2023/06/15 10:22:45;;;;;;;;;;;21.40;43.50;;;;;;4131416;28;19918;-82
2023/06/15 10:25:06;;;;;;;;;;;21.40;43.20;;;;;;4127441;28;19928;-82
2023/06/15 10:27:27;;;;;;;;;;;21.40;43.60;;;;;;4129307;28;19929;-82
2023/06/15 10:29:54;;;;;;;;;;;21.50;43.60;;;;;;4134779;28;19914;-82
2023/06/15 10:32:16;;;;;;;;;;;21.40;43.90;;;;;;4132183;28;19921;-83
2023/06/15 10:35:01;;;;;;;;;;;21.50;43.90;;;;;;4129573;28;19964;-83
2023/06/15 10:37:46;;;;;;;;;;;21.40;43.80;;;;;;4120809;28;19929;-82
2023/06/15 10:40:13;;;;;;;;;;;21.40;43.50;;;;;;4145021;28;19910;-82
2023/06/15 10:42:43;;;;;;;;;;;21.50;43.60;;;;;;4141125;28;19914;-85
2023/06/15 10:45:36;;;;;;;;;;;21.40;43.00;;;;;;4142940;28;19906;-79
2023/06/15 10:47:58;;;;;;;;;;;21.40;43.30;;;;;;4107686;28;19926;-82
2023/06/15 10:50:19;;;;;;;;;;;21.30;43.10;;;;;;4108658;28;19962;-84
2023/06/15 10:52:40;;;;;;;;;;;21.30;44.00;;;;;;4097843;28;19986;-83
2023/06/15 10:55:06;;;;;;;;;;;21.30;44.00;;;;;;4100371;28;19923;-83
2023/06/15 10:57:28;;;;;;;;;;;21.30;43.70;;;;;;4107100;28;19998;-83
2023/06/15 10:59:53;;;;;;;;;;;21.30;44.20;;;;;;4095366;28;19919;-83
2023/06/15 11:02:29;;;;;;;;;;;21.20;44.20;;;;;;4087098;28;19918;-83
2023/06/15 11:04:51;;;;;;;;;;;21.20;44.10;;;;;;4101210;28;20045;-83
2023/06/15 11:07:22;;;;;;;;;;;21.20;43.80;;;;;;4098228;28;19914;-82
2023/06/15 11:09:44;;;;;;;;;;;21.20;44.20;;;;;;4096037;28;19941;-83
2023/06/15 11:12:25;;;;;;;;;;;21.20;44.40;;;;;;4090671;28;20669;-83
2023/06/15 11:14:51;;;;;;;;;;;21.20;44.20;;;;;;4082416;29;19962;-84
2023/06/15 11:17:20;;;;;;;;;;;21.20;43.50;;;;;;4096340;28;19918;-83
2023/06/15 11:19:41;;;;;;;;;;;21.20;43.60;;;;;;4099376;28;20112;-82
2023/06/15 11:22:05;;;;;;;;;;;21.10;43.50;;;;;;4098476;28;19923;-84
2023/06/15 11:24:29;;;;;;;;;;;21.10;43.80;;;;;;4131639;28;19914;-82
2023/06/15 11:26:50;;;;;;;;;;;21.10;42.90;;;;;;4125149;28;19961;-83
2023/06/15 11:29:12;;;;;;;;;;;21.20;43.40;;;;;;4124869;28;20449;-83
2023/06/15 11:31:34;;;;;;;;;;;21.20;43.20;;;;;;4129977;28;19921;-83
2023/06/15 11:33:55;;;;;;;;;;;21.20;43.20;;;;;;4129848;28;19914;-84
2023/06/15 11:36:16;;;;;;;;;;;21.40;42.10;;;;;;4127730;28;19914;-82
2023/06/15 11:38:37;;;;;;;;;;;21.50;42.00;;;;;;4124800;28;19917;-82
2023/06/15 11:41:04;;;;;;;;;;;21.50;41.70;;;;;;4119028;28;19957;-81
2023/06/15 11:43:29;;;;;;;;;;;21.60;40.30;;;;;;4124879;28;19918;-83
2023/06/15 11:45:50;;;;;;;;;;;21.70;40.60;;;;;;4122148;28;19941;-84
2023/06/15 11:48:14;;;;;;;;;;;21.80;40.40;;;;;;4124750;28;20379;-83
2023/06/15 11:50:40;;;;;;;;;;;21.90;40.30;;;;;;4119333;28;19917;-83
2023/06/15 11:53:01;;;;;;;;;;;21.90;39.90;;;;;;4120380;28;19922;-80
2023/06/15 11:55:22;;;;;;;;;;;22.00;39.40;;;;;;4119702;28;19929;-84
2023/06/15 11:57:46;;;;;;;;;;;22.00;39.30;;;;;;4126404;28;19941;-84
2023/06/15 12:00:08;;;;;;;;;;;22.10;39.50;;;;;;4122190;28;19918;-84
2023/06/15 12:02:29;;;;;;;;;;;22.10;38.50;;;;;;4129979;28;19972;-84
2023/06/15 12:04:53;;;;;;;;;;;22.10;37.60;;;;;;4127571;28;20299;-84
2023/06/15 12:07:15;;;;;;;;;;;22.10;37.70;;;;;;4130709;28;19926;-83
2023/06/15 12:09:36;;;;;;;;;;;22.20;37.50;;;;;;4134293;28;19980;-84
2023/06/15 12:11:57;;;;;;;;;;;22.20;37.70;;;;;;4127321;28;19922;-83
2023/06/15 12:14:21;;;;;;;;;;;22.20;38.00;;;;;;4118977;28;19917;-83
2023/06/15 12:16:47;;;;;;;;;;;22.30;38.30;;;;;;4122125;28;19917;-83
2023/06/15 12:19:08;;;;;;;;;;;22.30;37.60;;;;;;4123526;28;19929;-82
2023/06/15 12:21:33;;;;;;;;;;;22.30;37.40;;;;;;4125065;28;19917;-82
2023/06/15 12:23:55;;;;;;;;;;;22.30;37.50;;;;;;4121984;28;19925;-83
2023/06/15 12:26:17;;;;;;;;;;;22.40;36.90;;;;;;4118524;28;19924;-84
2023/06/15 12:28:38;;;;;;;;;;;22.50;37.50;;;;;;4119031;28;19957;-83
2023/06/15 12:31:03;;;;;;;;;;;22.50;37.90;;;;;;4121035;28;19917;-84
2023/06/15 12:33:31;;;;;;;;;;;22.60;38.70;;;;;;4128997;28;19914;-82
2023/06/15 12:35:54;;;;;;;;;;;22.70;38.60;;;;;;4121649;28;19929;-83
2023/06/15 12:38:15;;;;;;;;;;;22.80;38.10;;;;;;4132131;28;20383;-83
2023/06/15 12:40:40;;;;;;;;;;;22.80;38.40;;;;;;4124260;28;19976;-83
2023/06/15 12:43:01;;;;;;;;;;;22.90;38.50;;;;;;4123666;28;19918;-83
2023/06/15 12:45:22;;;;;;;;;;;23.00;37.70;;;;;;4130283;28;19939;-82
2023/06/15 12:47:43;;;;;;;;;;;23.00;38.20;;;;;;4127193;28;20384;-82
2023/06/15 12:50:04;;;;;;;;;;;23.10;38.30;;;;;;4126673;28;19997;-83
2023/06/15 12:52:27;;;;;;;;;;;23.10;36.70;;;;;;4128673;28;19917;-82
2023/06/15 12:54:47;;;;;;;;;;;23.20;37.40;;;;;;4126773;28;20453;-83
2023/06/15 12:57:08;;;;;;;;;;;23.20;37.10;;;;;;4130706;28;19981;-83
2023/06/15 12:59:29;;;;;;;;;;;23.30;36.80;;;;;;4122407;28;20012;-82
2023/06/15 13:01:50;;;;;;;;;;;23.30;37.40;;;;;;4125437;28;20473;-81
2023/06/15 13:04:11;;;;;;;;;;;23.30;37.40;;;;;;4127636;28;19932;-83
2023/06/15 13:06:31;;;;;;;;;;;23.40;36.60;;;;;;4126411;28;19922;-82
2023/06/15 13:08:52;;;;;;;;;;;23.40;35.70;;;;;;4123328;28;20277;-82
2023/06/15 13:11:13;;;;;;;;;;;23.50;35.30;;;;;;4125580;28;19918;-82
2023/06/15 13:13:34;;;;;;;;;;;23.50;34.60;;;;;;4123621;28;19918;-82
2023/06/15 13:15:55;;;;;;;;;;;23.50;33.80;;;;;;4123456;28;19928;-83
2023/06/15 13:18:16;;;;;;;;;;;23.50;34.30;;;;;;4125258;28;19922;-83
2023/06/15 13:20:37;;;;;;;;;;;23.50;34.40;;;;;;4124792;28;19980;-83
2023/06/15 13:22:58;;;;;;;;;;;23.50;34.50;;;;;;4127612;28;20699;-83
2023/06/15 13:25:19;;;;;;;;;;;23.50;34.00;;;;;;4127797;28;21788;-83
2023/06/15 13:27:40;;;;;;;;;;;23.50;34.20;;;;;;4124395;28;19922;-83
2023/06/15 13:30:01;;;;;;;;;;;23.50;34.70;;;;;;4121863;28;19922;-83
2023/06/15 13:32:22;;;;;;;;;;;23.60;35.00;;;;;;4120030;28;19922;-83
2023/06/15 13:34:42;;;;;;;;;;;23.60;35.00;;;;;;4125331;28;20296;-82
2023/06/15 13:37:03;;;;;;;;;;;23.60;35.60;;;;;;4124606;28;19918;-82
2023/06/15 13:39:24;;;;;;;;;;;23.60;35.70;;;;;;4126414;28;20348;-82
2023/06/15 13:41:45;;;;;;;;;;;23.60;35.90;;;;;;4126197;28;20023;-83
2023/06/15 13:44:06;;;;;;;;;;;23.60;35.80;;;;;;4129151;28;19937;-84
2023/06/15 13:46:27;;;;;;;;;;;23.70;36.10;;;;;;4128234;28;19929;-83